sensor_id;sensor_type;location;lat;lon;timestamp;pressure;altitude;pressure_sealevel;temperature;humidity
46876;BME280;32866;50.160;14.768;2022-07-29T00:00:08;99518.63;;;16.07;76.50
46876;BME280;32866;50.160;14.768;2022-07-29T00:02:34;99485.53;;;15.74;78.51
46876;BME280;32866;50.160;14.768;2022-07-29T00:05:00;99511.25;;;15.89;78.65
46876;BME280;32866;50.160;14.768;2022-07-29T00:07:26;99515.81;;;15.92;77.85
46876;BME280;32866;50.160;14.768;2022-07-29T00:09:51;99513.25;;;15.89;78.63
46876;BME280;32866;50.160;14.768;2022-07-29T00:12:17;99518.31;;;15.90;78.19
46876;BME280;32866;50.160;14.768;2022-07-29T00:14:42;99515.03;;;15.68;78.62
46876;BME280;32866;50.160;14.768;2022-07-29T00:17:08;99483.13;;;15.43;79.50
46876;BME280;32866;50.160;14.768;2022-07-29T00:19:33;99512.03;;;15.56;79.30
46876;BME280;32866;50.160;14.768;2022-07-29T00:21:59;99506.97;;;15.55;80.47
46876;BME280;32866;50.160;14.768;2022-07-29T00:24:24;99512.50;;;15.55;81.73
46876;BME280;32866;50.160;14.768;2022-07-29T00:26:50;99488.69;;;15.33;81.39
46876;BME280;32866;50.160;14.768;2022-07-29T00:29:15;99472.81;;;15.43;80.29
46876;BME280;32866;50.160;14.768;2022-07-29T00:31:40;99490.47;;;15.46;81.81
46876;BME280;32866;50.160;14.768;2022-07-29T00:34:06;99492.50;;;15.36;80.66
46876;BME280;32866;50.160;14.768;2022-07-29T00:36:51;99449.44;;;15.05;79.48
46876;BME280;32866;50.160;14.768;2022-07-29T00:39:16;99478.06;;;15.41;81.75
46876;BME280;32866;50.160;14.768;2022-07-29T00:41:41;99477.25;;;15.16;81.72
46876;BME280;32866;50.160;14.768;2022-07-29T00:44:07;99468.56;;;15.09;83.30
46876;BME280;32866;50.160;14.768;2022-07-29T00:46:32;99468.44;;;15.03;82.41
46876;BME280;32866;50.160;14.768;2022-07-29T00:48:58;99460.22;;;14.94;82.25
46876;BME280;32866;50.160;14.768;2022-07-29T00:51:23;99478.88;;;14.99;81.75
46876;BME280;32866;50.160;14.768;2022-07-29T00:53:50;99452.91;;;14.81;82.33
46876;BME280;32866;50.160;14.768;2022-07-29T00:56:16;99444.47;;;14.76;83.21
46876;BME280;32866;50.160;14.768;2022-07-29T00:58:41;99458.88;;;14.80;82.85
46876;BME280;32866;50.160;14.768;2022-07-29T01:01:07;99441.94;;;14.63;83.98
46876;BME280;32866;50.160;14.768;2022-07-29T01:03:32;99462.28;;;14.75;83.76
46876;BME280;32866;50.160;14.768;2022-07-29T01:05:57;99490.56;;;14.84;83.70
46876;BME280;32866;50.160;14.768;2022-07-29T01:08:23;99483.66;;;14.89;84.32
46876;BME280;32866;50.160;14.768;2022-07-29T01:10:49;99469.47;;;14.81;84.39
46876;BME280;32866;50.160;14.768;2022-07-29T01:13:16;99474.34;;;14.87;84.23
46876;BME280;32866;50.160;14.768;2022-07-29T01:15:45;99475.25;;;14.83;84.42
46876;BME280;32866;50.160;14.768;2022-07-29T01:18:16;99466.38;;;14.79;84.92
46876;BME280;32866;50.160;14.768;2022-07-29T01:20:58;99439.91;;;14.54;84.80
46876;BME280;32866;50.160;14.768;2022-07-29T01:23:52;99467.47;;;14.73;85.68
46876;BME280;32866;50.160;14.768;2022-07-29T01:29:06;99456.03;;;14.65;83.04
46876;BME280;32866;50.160;14.768;2022-07-29T01:34:23;99426.31;;;14.51;83.69
46876;BME280;32866;50.160;14.768;2022-07-29T01:36:55;99412.56;;;14.41;83.90
46876;BME280;32866;50.160;14.768;2022-07-29T01:39:27;99438.88;;;14.42;84.97
46876;BME280;32866;50.160;14.768;2022-07-29T01:42:32;99444.50;;;14.57;85.28
46876;BME280;32866;50.160;14.768;2022-07-29T01:45:04;99453.56;;;14.48;84.65
46876;BME280;32866;50.160;14.768;2022-07-29T01:47:40;99442.25;;;14.46;85.25
46876;BME280;32866;50.160;14.768;2022-07-29T01:50:08;99440.53;;;14.49;84.92
46876;BME280;32866;50.160;14.768;2022-07-29T01:52:54;99433.06;;;14.50;85.59
46876;BME280;32866;50.160;14.768;2022-07-29T01:55:24;99434.84;;;14.71;86.17
46876;BME280;32866;50.160;14.768;2022-07-29T01:57:51;99426.16;;;14.63;86.98
46876;BME280;32866;50.160;14.768;2022-07-29T02:00:16;99440.97;;;14.66;85.85
46876;BME280;32866;50.160;14.768;2022-07-29T02:02:44;99440.69;;;14.55;87.23
46876;BME280;32866;50.160;14.768;2022-07-29T02:05:13;99442.38;;;14.52;86.23
46876;BME280;32866;50.160;14.768;2022-07-29T02:07:43;99435.03;;;14.49;84.52
46876;BME280;32866;50.160;14.768;2022-07-29T02:10:10;99438.25;;;14.57;83.97
46876;BME280;32866;50.160;14.768;2022-07-29T02:12:38;99400.94;;;14.28;85.21
46876;BME280;32866;50.160;14.768;2022-07-29T02:15:06;99409.19;;;14.37;86.90
46876;BME280;32866;50.160;14.768;2022-07-29T02:17:41;99439.16;;;14.54;85.24
46876;BME280;32866;50.160;14.768;2022-07-29T02:20:08;99435.31;;;14.51;86.08
46876;BME280;32866;50.160;14.768;2022-07-29T02:22:37;99433.19;;;14.46;86.61
46876;BME280;32866;50.160;14.768;2022-07-29T02:25:03;99436.13;;;14.52;87.20
46876;BME280;32866;50.160;14.768;2022-07-29T02:27:30;99391.28;;;14.33;88.78
46876;BME280;32866;50.160;14.768;2022-07-29T02:29:58;99429.97;;;14.47;88.96
46876;BME280;32866;50.160;14.768;2022-07-29T02:32:26;99433.66;;;14.44;88.73
46876;BME280;32866;50.160;14.768;2022-07-29T02:34:53;99429.72;;;14.36;87.46
46876;BME280;32866;50.160;14.768;2022-07-29T02:37:19;99438.28;;;14.38;87.87
46876;BME280;32866;50.160;14.768;2022-07-29T02:39:47;99428.63;;;14.43;89.94
46876;BME280;32866;50.160;14.768;2022-07-29T02:42:15;99438.88;;;14.42;89.07
46876;BME280;32866;50.160;14.768;2022-07-29T02:44:41;99433.06;;;14.59;90.51
46876;BME280;32866;50.160;14.768;2022-07-29T02:47:24;99436.75;;;14.37;89.38
46876;BME280;32866;50.160;14.768;2022-07-29T02:50:15;99438.59;;;14.31;88.85
46876;BME280;32866;50.160;14.768;2022-07-29T02:52:59;99451.16;;;14.32;89.35
46876;BME280;32866;50.160;14.768;2022-07-29T02:58:27;99444.72;;;14.26;91.40
46876;BME280;32866;50.160;14.768;2022-07-29T03:00:57;99434.94;;;14.25;91.12
46876;BME280;32866;50.160;14.768;2022-07-29T03:03:25;99435.88;;;14.22;91.55
46876;BME280;32866;50.160;14.768;2022-07-29T03:05:57;99438.16;;;14.23;92.05
46876;BME280;32866;50.160;14.768;2022-07-29T03:08:24;99435.56;;;14.20;91.85
46876;BME280;32866;50.160;14.768;2022-07-29T03:10:50;99443.97;;;14.25;92.78
46876;BME280;32866;50.160;14.768;2022-07-29T03:13:16;99420.56;;;14.02;93.39
46876;BME280;32866;50.160;14.768;2022-07-29T03:15:45;99445.97;;;14.25;94.05
46876;BME280;32866;50.160;14.768;2022-07-29T03:18:12;99445.97;;;14.25;94.34
46876;BME280;32866;50.160;14.768;2022-07-29T03:20:39;99441.38;;;14.22;98.42
46876;BME280;32866;50.160;14.768;2022-07-29T03:23:04;99440.16;;;14.14;98.06
46876;BME280;32866;50.160;14.768;2022-07-29T03:25:30;99440.00;;;14.17;98.23
46876;BME280;32866;50.160;14.768;2022-07-29T03:27:56;99430.06;;;14.20;98.34
46876;BME280;32866;50.160;14.768;2022-07-29T03:30:21;99436.16;;;14.24;97.73
46876;BME280;32866;50.160;14.768;2022-07-29T03:32:48;99429.88;;;14.23;97.69
46876;BME280;32866;50.160;14.768;2022-07-29T03:35:13;99437.53;;;14.19;98.92
46876;BME280;32866;50.160;14.768;2022-07-29T03:37:39;99434.03;;;14.28;98.28
46876;BME280;32866;50.160;14.768;2022-07-29T03:40:07;99427.72;;;14.27;99.23
46876;BME280;32866;50.160;14.768;2022-07-29T03:42:35;99420.88;;;14.14;99.21
46876;BME280;32866;50.160;14.768;2022-07-29T03:45:05;99420.72;;;13.99;99.16
46876;BME280;32866;50.160;14.768;2022-07-29T03:47:31;99431.59;;;14.02;99.39
46876;BME280;32866;50.160;14.768;2022-07-29T03:50:00;99423.66;;;13.95;100.00
46876;BME280;32866;50.160;14.768;2022-07-29T03:52:27;99415.09;;;13.93;100.00
46876;BME280;32866;50.160;14.768;2022-07-29T03:54:52;99398.53;;;13.84;100.00
46876;BME280;32866;50.160;14.768;2022-07-29T03:57:18;99421.50;;;14.08;99.93
46876;BME280;32866;50.160;14.768;2022-07-29T03:59:46;99411.25;;;13.90;99.83
46876;BME280;32866;50.160;14.768;2022-07-29T04:02:12;99430.06;;;14.10;100.00
46876;BME280;32866;50.160;14.768;2022-07-29T04:04:38;99398.56;;;13.93;100.00
46876;BME280;32866;50.160;14.768;2022-07-29T04:07:04;99421.50;;;14.18;99.77
46876;BME280;32866;50.160;14.768;2022-07-29T04:09:29;99393.31;;;14.14;100.00
46876;BME280;32866;50.160;14.768;2022-07-29T04:11:55;99419.28;;;14.40;99.29
46876;BME280;32866;50.160;14.768;2022-07-29T04:14:20;99414.88;;;14.34;100.00
46876;BME280;32866;50.160;14.768;2022-07-29T04:16:46;99398.81;;;14.14;100.00
46876;BME280;32866;50.160;14.768;2022-07-29T04:19:11;99421.72;;;14.47;100.00
46876;BME280;32866;50.160;14.768;2022-07-29T04:21:41;99427.84;;;14.42;100.00
46876;BME280;32866;50.160;14.768;2022-07-29T04:24:07;99418.66;;;14.55;100.00
46876;BME280;32866;50.160;14.768;2022-07-29T04:26:33;99412.66;;;14.56;100.00
46876;BME280;32866;50.160;14.768;2022-07-29T04:28:59;99423.22;;;14.67;100.00
46876;BME280;32866;50.160;14.768;2022-07-29T04:31:24;99423.81;;;14.71;100.00
46876;BME280;32866;50.160;14.768;2022-07-29T04:33:50;99402.72;;;14.59;100.00
46876;BME280;32866;50.160;14.768;2022-07-29T04:36:15;99423.31;;;14.82;99.74
46876;BME280;32866;50.160;14.768;2022-07-29T04:38:40;99433.97;;;14.98;98.55
46876;BME280;32866;50.160;14.768;2022-07-29T04:41:06;99431.97;;;14.99;100.00
46876;BME280;32866;50.160;14.768;2022-07-29T04:43:32;99439.34;;;14.93;100.00
46876;BME280;32866;50.160;14.768;2022-07-29T04:45:58;99435.09;;;14.92;100.00
46876;BME280;32866;50.160;14.768;2022-07-29T04:48:23;99400.22;;;14.70;100.00
46876;BME280;32866;50.160;14.768;2022-07-29T04:50:48;99439.34;;;14.93;100.00
46876;BME280;32866;50.160;14.768;2022-07-29T04:53:14;99437.97;;;14.97;100.00
46876;BME280;32866;50.160;14.768;2022-07-29T04:55:39;99439.31;;;15.02;99.61
46876;BME280;32866;50.160;14.768;2022-07-29T04:58:05;99443.28;;;15.10;99.72
46876;BME280;32866;50.160;14.768;2022-07-29T05:00:30;99432.81;;;15.14;99.10
46876;BME280;32866;50.160;14.768;2022-07-29T05:02:55;99436.19;;;15.18;99.30
46876;BME280;32866;50.160;14.768;2022-07-29T05:05:21;99432.47;;;15.21;99.45
46876;BME280;32866;50.160;14.768;2022-07-29T05:07:46;99434.94;;;15.19;97.83
46876;BME280;32866;50.160;14.768;2022-07-29T05:10:11;99422.88;;;15.08;98.06
46876;BME280;32866;50.160;14.768;2022-07-29T05:12:37;99443.81;;;15.24;99.72
46876;BME280;32866;50.160;14.768;2022-07-29T05:15:02;99449.97;;;15.43;99.95
46876;BME280;32866;50.160;14.768;2022-07-29T05:17:28;99441.00;;;15.33;100.00
46876;BME280;32866;50.160;14.768;2022-07-29T05:19:53;99444.88;;;15.50;100.00
46876;BME280;32866;50.160;14.768;2022-07-29T05:22:19;99448.13;;;15.49;100.00
46876;BME280;32866;50.160;14.768;2022-07-29T05:24:44;99453.47;;;15.52;99.31
46876;BME280;32866;50.160;14.768;2022-07-29T05:27:09;99456.88;;;15.47;100.00
46876;BME280;32866;50.160;14.768;2022-07-29T05:29:34;99456.16;;;15.37;100.00
46876;BME280;32866;50.160;14.768;2022-07-29T05:32:00;99435.56;;;15.14;99.65
46876;BME280;32866;50.160;14.768;2022-07-29T05:34:25;99461.13;;;15.48;100.00
46876;BME280;32866;50.160;14.768;2022-07-29T05:36:50;99432.41;;;15.55;93.56
46876;BME280;32866;50.160;14.768;2022-07-29T05:39:16;99455.44;;;16.15;89.84
46876;BME280;32866;50.160;14.768;2022-07-29T05:41:41;99451.34;;;16.70;85.69
46876;BME280;32866;50.160;14.768;2022-07-29T05:44:06;99428.56;;;16.90;88.41
46876;BME280;32866;50.160;14.768;2022-07-29T05:46:31;99452.66;;;17.40;81.15
46876;BME280;32866;50.160;14.768;2022-07-29T05:48:57;99447.03;;;17.34;76.30
46876;BME280;32866;50.160;14.768;2022-07-29T05:51:22;99426.66;;;16.96;77.04
46876;BME280;32866;50.160;14.768;2022-07-29T05:53:47;99442.69;;;17.48;80.56
46876;BME280;32866;50.160;14.768;2022-07-29T05:56:13;99423.84;;;17.52;76.90
46876;BME280;32866;50.160;14.768;2022-07-29T05:58:38;99429.19;;;17.97;77.18
46876;BME280;32866;50.160;14.768;2022-07-29T06:01:03;99425.56;;;17.91;69.90
46876;BME280;32866;50.160;14.768;2022-07-29T06:03:28;99449.81;;;18.48;72.08
46876;BME280;32866;50.160;14.768;2022-07-29T06:05:54;99460.66;;;18.78;72.02
46876;BME280;32866;50.160;14.768;2022-07-29T06:08:19;99452.72;;;18.91;67.90
46876;BME280;32866;50.160;14.768;2022-07-29T06:10:45;99453.44;;;18.86;65.73
46876;BME280;32866;50.160;14.768;2022-07-29T06:13:10;99452.16;;;18.56;67.44
46876;BME280;32866;50.160;14.768;2022-07-29T06:15:36;99461.38;;;18.73;67.57
46876;BME280;32866;50.160;14.768;2022-07-29T06:18:01;99456.78;;;18.38;67.07
46876;BME280;32866;50.160;14.768;2022-07-29T06:20:28;99452.72;;;18.07;70.80
46876;BME280;32866;50.160;14.768;2022-07-29T06:22:55;99457.72;;;18.03;74.00
46876;BME280;32866;50.160;14.768;2022-07-29T06:25:20;99451.88;;;18.01;71.70
46876;BME280;32866;50.160;14.768;2022-07-29T06:27:45;99450.38;;;18.00;71.71
46876;BME280;32866;50.160;14.768;2022-07-29T06:30:11;99450.47;;;18.11;71.72
46876;BME280;32866;50.160;14.768;2022-07-29T06:32:36;99420.03;;;17.91;71.03
46876;BME280;32866;50.160;14.768;2022-07-29T06:35:02;99446.25;;;18.16;71.33
46876;BME280;32866;50.160;14.768;2022-07-29T06:37:27;99427.25;;;18.03;70.51
46876;BME280;32866;50.160;14.768;2022-07-29T06:39:52;99460.91;;;18.48;75.97
46876;BME280;32866;50.160;14.768;2022-07-29T06:42:42;99436.75;;;18.54;72.11
46876;BME280;32866;50.160;14.768;2022-07-29T06:45:07;99457.19;;;18.83;71.33
46876;BME280;32866;50.160;14.768;2022-07-29T06:47:33;99466.34;;;18.89;70.39
46876;BME280;32866;50.160;14.768;2022-07-29T06:49:59;99452.78;;;18.97;72.53
46876;BME280;32866;50.160;14.768;2022-07-29T06:52:24;99455.69;;;19.25;75.53
46876;BME280;32866;50.160;14.768;2022-07-29T06:54:50;99461.47;;;19.16;70.93
46876;BME280;32866;50.160;14.768;2022-07-29T06:57:16;99444.47;;;19.03;70.82
46876;BME280;32866;50.160;14.768;2022-07-29T07:02:16;99454.19;;;19.24;69.76
46876;BME280;32866;50.160;14.768;2022-07-29T07:04:41;99450.16;;;19.25;71.56
46876;BME280;32866;50.160;14.768;2022-07-29T07:07:07;99458.28;;;19.29;69.32
46876;BME280;32866;50.160;14.768;2022-07-29T07:09:32;99460.81;;;19.33;70.81
46876;BME280;32866;50.160;14.768;2022-07-29T07:11:57;99459.13;;;19.52;70.49
46876;BME280;32866;50.160;14.768;2022-07-29T07:14:22;99457.31;;;19.38;70.82
46876;BME280;32866;50.160;14.768;2022-07-29T07:16:48;99466.44;;;19.50;67.84
46876;BME280;32866;50.160;14.768;2022-07-29T07:19:13;99462.69;;;19.58;68.88
46876;BME280;32866;50.160;14.768;2022-07-29T07:21:38;99447.44;;;19.37;66.53
46876;BME280;32866;50.160;14.768;2022-07-29T07:24:04;99463.50;;;19.64;67.94
46876;BME280;32866;50.160;14.768;2022-07-29T07:26:29;99457.69;;;19.74;67.80
46876;BME280;32866;50.160;14.768;2022-07-29T07:28:55;99462.03;;;19.75;70.49
46876;BME280;32866;50.160;14.768;2022-07-29T07:31:20;99469.63;;;19.80;68.49
46876;BME280;32866;50.160;14.768;2022-07-29T07:33:45;99465.53;;;19.70;67.84
46876;BME280;32866;50.160;14.768;2022-07-29T07:36:11;99463.22;;;19.62;68.24
46876;BME280;32866;50.160;14.768;2022-07-29T07:38:36;99437.84;;;19.38;68.60
46876;BME280;32866;50.160;14.768;2022-07-29T07:41:01;99459.72;;;19.73;69.39
46876;BME280;32866;50.160;14.768;2022-07-29T07:43:27;99442.56;;;19.75;68.76
46876;BME280;32866;50.160;14.768;2022-07-29T07:45:52;99459.09;;;20.12;69.29
46876;BME280;32866;50.160;14.768;2022-07-29T07:48:17;99433.03;;;19.98;69.95
46876;BME280;32866;50.160;14.768;2022-07-29T07:50:43;99458.38;;;20.23;66.02
46876;BME280;32866;50.160;14.768;2022-07-29T07:53:08;99456.91;;;20.45;70.47
46876;BME280;32866;50.160;14.768;2022-07-29T07:55:39;99454.88;;;20.39;66.36
46876;BME280;32866;50.160;14.768;2022-07-29T07:58:05;99441.47;;;20.38;66.42
46876;BME280;32866;50.160;14.768;2022-07-29T08:00:30;99460.16;;;20.49;67.98
46876;BME280;32866;50.160;14.768;2022-07-29T08:02:57;99452.06;;;20.51;64.26
46876;BME280;32866;50.160;14.768;2022-07-29T08:05:22;99422.97;;;20.41;72.31
46876;BME280;32866;50.160;14.768;2022-07-29T08:07:48;99451.84;;;20.60;67.05
46876;BME280;32866;50.160;14.768;2022-07-29T08:10:15;99453.06;;;20.48;65.21
46876;BME280;32866;50.160;14.768;2022-07-29T08:13:03;99445.00;;;20.50;63.98
46876;BME280;32866;50.160;14.768;2022-07-29T08:15:29;99414.13;;;20.31;66.28
46876;BME280;32866;50.160;14.768;2022-07-29T08:17:54;99436.19;;;20.68;67.89
46876;BME280;32866;50.160;14.768;2022-07-29T08:20:19;99442.75;;;20.77;67.16
46876;BME280;32866;50.160;14.768;2022-07-29T08:22:44;99438.44;;;20.75;69.45
46876;BME280;32866;50.160;14.768;2022-07-29T08:25:10;99444.75;;;20.93;72.22
46876;BME280;32866;50.160;14.768;2022-07-29T08:27:35;99437.94;;;20.71;69.97
46876;BME280;32866;50.160;14.768;2022-07-29T08:30:00;99426.53;;;20.81;67.18
46876;BME280;32866;50.160;14.768;2022-07-29T08:32:26;99433.59;;;20.93;60.68
46876;BME280;32866;50.160;14.768;2022-07-29T08:34:53;99460.19;;;21.05;63.23
46876;BME280;32866;50.160;14.768;2022-07-29T08:37:19;99452.06;;;21.19;70.91
46876;BME280;32866;50.160;14.768;2022-07-29T08:39:44;99434.88;;;20.92;63.40
46876;BME280;32866;50.160;14.768;2022-07-29T08:42:10;99451.31;;;21.12;64.25
46876;BME280;32866;50.160;14.768;2022-07-29T08:44:36;99448.97;;;21.28;64.74
46876;BME280;32866;50.160;14.768;2022-07-29T08:47:02;99455.75;;;21.61;64.04
46876;BME280;32866;50.160;14.768;2022-07-29T08:49:28;99450.72;;;21.54;63.59
46876;BME280;32866;50.160;14.768;2022-07-29T08:51:53;99457.97;;;21.74;64.25
46876;BME280;32866;50.160;14.768;2022-07-29T08:54:19;99461.34;;;22.08;60.44
46876;BME280;32866;50.160;14.768;2022-07-29T08:56:50;99418.16;;;21.73;62.31
46876;BME280;32866;50.160;14.768;2022-07-29T08:59:19;99457.59;;;22.00;59.34
46876;BME280;32866;50.160;14.768;2022-07-29T09:01:46;99425.31;;;21.63;62.57
46876;BME280;32866;50.160;14.768;2022-07-29T09:04:13;99451.81;;;21.92;63.21
46876;BME280;32866;50.160;14.768;2022-07-29T09:06:44;99423.91;;;21.92;65.05
46876;BME280;32866;50.160;14.768;2022-07-29T09:09:25;99440.41;;;22.32;64.49
46876;BME280;32866;50.160;14.768;2022-07-29T09:11:50;99439.59;;;22.42;61.96
46876;BME280;32866;50.160;14.768;2022-07-29T09:14:18;99422.28;;;22.08;62.75
46876;BME280;32866;50.160;14.768;2022-07-29T09:16:48;99440.84;;;22.41;61.67
46876;BME280;32866;50.160;14.768;2022-07-29T09:19:29;99441.81;;;22.50;61.85
46876;BME280;32866;50.160;14.768;2022-07-29T09:21:56;99446.06;;;22.56;64.24
46876;BME280;32866;50.160;14.768;2022-07-29T09:24:46;99441.59;;;22.42;63.80
46876;BME280;32866;50.160;14.768;2022-07-29T09:27:24;99443.38;;;22.75;61.75
46876;BME280;32866;50.160;14.768;2022-07-29T09:30:10;99441.28;;;22.82;61.36
46876;BME280;32866;50.160;14.768;2022-07-29T09:32:56;99441.50;;;22.84;64.39
46876;BME280;32866;50.160;14.768;2022-07-29T09:35:24;99440.78;;;22.83;61.95
46876;BME280;32866;50.160;14.768;2022-07-29T09:37:50;99439.53;;;23.09;62.86
46876;BME280;32866;50.160;14.768;2022-07-29T09:40:20;99421.50;;;23.04;60.70
46876;BME280;32866;50.160;14.768;2022-07-29T09:42:46;99437.38;;;23.21;61.68
46876;BME280;32866;50.160;14.768;2022-07-29T09:45:12;99421.25;;;23.08;59.19
46876;BME280;32866;50.160;14.768;2022-07-29T09:47:42;99433.31;;;23.22;58.99
46876;BME280;32866;50.160;14.768;2022-07-29T09:50:10;99420.78;;;23.28;60.63
46876;BME280;32866;50.160;14.768;2022-07-29T09:52:45;99429.47;;;23.44;61.43
46876;BME280;32866;50.160;14.768;2022-07-29T09:55:12;99425.56;;;23.52;60.98
46876;BME280;32866;50.160;14.768;2022-07-29T09:57:37;99424.88;;;23.90;59.43
46876;BME280;32866;50.160;14.768;2022-07-29T10:02:36;99411.63;;;24.42;57.84
46876;BME280;32866;50.160;14.768;2022-07-29T10:05:04;99419.50;;;24.89;58.77
46876;BME280;32866;50.160;14.768;2022-07-29T10:08:02;99418.09;;;24.96;56.53
46876;BME280;32866;50.160;14.768;2022-07-29T10:10:33;99419.81;;;24.99;57.26
46876;BME280;32866;50.160;14.768;2022-07-29T10:13:01;99419.59;;;24.97;56.99
46876;BME280;32866;50.160;14.768;2022-07-29T10:15:29;99423.72;;;25.23;56.78
46876;BME280;32866;50.160;14.768;2022-07-29T10:17:55;99417.13;;;25.20;55.98
46876;BME280;32866;50.160;14.768;2022-07-29T10:20:22;99418.53;;;25.27;54.94
46876;BME280;32866;50.160;14.768;2022-07-29T10:22:49;99413.91;;;25.43;56.64
46876;BME280;32866;50.160;14.768;2022-07-29T10:25:15;99404.06;;;25.63;55.31
46876;BME280;32866;50.160;14.768;2022-07-29T10:27:42;99413.69;;;26.02;57.53
46876;BME280;32866;50.160;14.768;2022-07-29T10:30:08;99398.31;;;26.16;54.77
46876;BME280;32866;50.160;14.768;2022-07-29T10:35:24;99399.72;;;26.31;54.79
46876;BME280;32866;50.160;14.768;2022-07-29T10:43:42;99381.75;;;25.91;54.00
46876;BME280;32866;50.160;14.768;2022-07-29T10:46:10;99386.31;;;25.81;53.34
46876;BME280;32866;50.160;14.768;2022-07-29T10:52:05;99396.84;;;25.54;52.16
46876;BME280;32866;50.160;14.768;2022-07-29T10:54:42;99390.72;;;26.24;52.80
46876;BME280;32866;50.160;14.768;2022-07-29T11:05:03;99391.66;;;26.48;50.07
46876;BME280;32866;50.160;14.768;2022-07-29T11:07:31;99391.19;;;27.15;49.84
46876;BME280;32866;50.160;14.768;2022-07-29T11:15:03;99386.19;;;27.73;47.24
